sensor_id;sensor_type;location;lat;lon;timestamp;P1;durP1;ratioP1;P2;durP2;ratioP2
33902;SDS011;20194;50.950;5.346;2023-06-14T00:01:46;11.18;;;5.70;;
33902;SDS011;20194;50.950;5.346;2023-06-14T00:04:12;9.85;;;6.53;;
33902;SDS011;20194;50.950;5.346;2023-06-14T00:06:38;8.70;;;5.72;;
33902;SDS011;20194;50.950;5.346;2023-06-14T00:09:06;9.35;;;5.72;;
33902;SDS011;20194;50.950;5.346;2023-06-14T00:11:33;10.63;;;6.40;;
33902;SDS011;20194;50.950;5.346;2023-06-14T00:13:59;13.32;;;6.20;;
33902;SDS011;20194;50.950;5.346;2023-06-14T00:16:25;11.10;;;6.68;;
33902;SDS011;20194;50.950;5.346;2023-06-14T00:18:51;7.15;;;6.10;;
33902;SDS011;20194;50.950;5.346;2023-06-14T00:21:16;9.13;;;5.78;;
33902;SDS011;20194;50.950;5.346;2023-06-14T00:23:42;8.52;;;6.68;;
33902;SDS011;20194;50.950;5.346;2023-06-14T00:26:08;8.00;;;5.70;;
33902;SDS011;20194;50.950;5.346;2023-06-14T00:28:34;13.80;;;6.15;;
33902;SDS011;20194;50.950;5.346;2023-06-14T00:31:00;13.43;;;6.18;;
33902;SDS011;20194;50.950;5.346;2023-06-14T00:33:26;9.85;;;5.90;;
33902;SDS011;20194;50.950;5.346;2023-06-14T00:35:52;11.48;;;6.00;;
33902;SDS011;20194;50.950;5.346;2023-06-14T00:38:20;9.57;;;5.90;;
33902;SDS011;20194;50.950;5.346;2023-06-14T00:40:46;16.20;;;6.40;;
33902;SDS011;20194;50.950;5.346;2023-06-14T00:43:12;8.77;;;6.68;;
33902;SDS011;20194;50.950;5.346;2023-06-14T00:45:37;8.68;;;5.88;;
33902;SDS011;20194;50.950;5.346;2023-06-14T00:48:04;13.48;;;6.18;;
33902;SDS011;20194;50.950;5.346;2023-06-14T00:50:31;8.70;;;6.47;;
33902;SDS011;20194;50.950;5.346;2023-06-14T00:52:58;10.40;;;6.18;;
33902;SDS011;20194;50.950;5.346;2023-06-14T00:55:27;9.02;;;6.07;;
33902;SDS011;20194;50.950;5.346;2023-06-14T00:57:54;9.68;;;6.20;;
33902;SDS011;20194;50.950;5.346;2023-06-14T01:00:20;11.15;;;6.07;;
33902;SDS011;20194;50.950;5.346;2023-06-14T01:02:47;8.15;;;6.40;;
33902;SDS011;20194;50.950;5.346;2023-06-14T01:05:14;10.02;;;6.50;;
33902;SDS011;20194;50.950;5.346;2023-06-14T01:10:43;9.07;;;5.93;;
33902;SDS011;20194;50.950;5.346;2023-06-14T01:13:38;9.73;;;5.65;;
33902;SDS011;20194;50.950;5.346;2023-06-14T01:16:06;9.20;;;6.35;;
33902;SDS011;20194;50.950;5.346;2023-06-14T01:18:33;10.25;;;6.20;;
33902;SDS011;20194;50.950;5.346;2023-06-14T01:21:00;8.32;;;6.18;;
33902;SDS011;20194;50.950;5.346;2023-06-14T01:23:30;11.55;;;6.65;;
33902;SDS011;20194;50.950;5.346;2023-06-14T01:25:58;12.10;;;6.97;;
33902;SDS011;20194;50.950;5.346;2023-06-14T01:28:25;12.68;;;7.13;;
33902;SDS011;20194;50.950;5.346;2023-06-14T01:30:57;11.40;;;7.20;;
33902;SDS011;20194;50.950;5.346;2023-06-14T01:33:29;10.77;;;7.10;;
33902;SDS011;20194;50.950;5.346;2023-06-14T01:35:57;14.15;;;6.97;;
33902;SDS011;20194;50.950;5.346;2023-06-14T01:38:25;17.23;;;7.38;;
33902;SDS011;20194;50.950;5.346;2023-06-14T01:40:51;11.73;;;6.90;;
33902;SDS011;20194;50.950;5.346;2023-06-14T01:43:20;9.52;;;7.32;;
33902;SDS011;20194;50.950;5.346;2023-06-14T01:45:46;9.57;;;7.00;;
33902;SDS011;20194;50.950;5.346;2023-06-14T01:48:14;12.27;;;6.50;;
33902;SDS011;20194;50.950;5.346;2023-06-14T01:50:40;12.15;;;7.45;;
33902;SDS011;20194;50.950;5.346;2023-06-14T01:53:09;9.75;;;6.65;;
33902;SDS011;20194;50.950;5.346;2023-06-14T01:55:35;13.07;;;7.20;;
33902;SDS011;20194;50.950;5.346;2023-06-14T01:58:08;15.98;;;7.80;;
33902;SDS011;20194;50.950;5.346;2023-06-14T02:00:37;12.68;;;7.57;;
33902;SDS011;20194;50.950;5.346;2023-06-14T02:03:02;12.50;;;6.93;;
33902;SDS011;20194;50.950;5.346;2023-06-14T02:05:31;14.65;;;6.57;;
33902;SDS011;20194;50.950;5.346;2023-06-14T02:07:56;13.15;;;6.82;;
33902;SDS011;20194;50.950;5.346;2023-06-14T02:10:22;12.18;;;7.60;;
33902;SDS011;20194;50.950;5.346;2023-06-14T02:12:48;10.57;;;7.22;;
33902;SDS011;20194;50.950;5.346;2023-06-14T02:15:15;10.05;;;6.75;;
33902;SDS011;20194;50.950;5.346;2023-06-14T02:17:44;12.38;;;7.43;;
33902;SDS011;20194;50.950;5.346;2023-06-14T02:20:12;13.48;;;7.22;;
33902;SDS011;20194;50.950;5.346;2023-06-14T02:22:38;11.75;;;7.32;;
33902;SDS011;20194;50.950;5.346;2023-06-14T02:25:04;9.30;;;7.05;;
33902;SDS011;20194;50.950;5.346;2023-06-14T02:27:30;10.75;;;7.55;;
33902;SDS011;20194;50.950;5.346;2023-06-14T02:29:56;12.63;;;7.75;;
33902;SDS011;20194;50.950;5.346;2023-06-14T02:32:22;12.30;;;7.93;;
33902;SDS011;20194;50.950;5.346;2023-06-14T02:34:48;11.43;;;8.27;;
33902;SDS011;20194;50.950;5.346;2023-06-14T02:37:15;10.38;;;6.88;;
33902;SDS011;20194;50.950;5.346;2023-06-14T02:39:41;11.45;;;7.32;;
33902;SDS011;20194;50.950;5.346;2023-06-14T02:42:07;14.88;;;8.23;;
33902;SDS011;20194;50.950;5.346;2023-06-14T02:44:32;10.38;;;7.65;;
33902;SDS011;20194;50.950;5.346;2023-06-14T02:46:58;14.90;;;8.07;;
33902;SDS011;20194;50.950;5.346;2023-06-14T02:49:25;15.15;;;8.43;;
33902;SDS011;20194;50.950;5.346;2023-06-14T02:51:51;20.15;;;9.05;;
33902;SDS011;20194;50.950;5.346;2023-06-14T02:54:17;12.02;;;7.50;;
33902;SDS011;20194;50.950;5.346;2023-06-14T02:56:43;12.02;;;8.05;;
33902;SDS011;20194;50.950;5.346;2023-06-14T02:59:09;17.63;;;7.85;;
33902;SDS011;20194;50.950;5.346;2023-06-14T03:01:35;13.68;;;8.05;;
33902;SDS011;20194;50.950;5.346;2023-06-14T03:04:04;10.52;;;8.00;;
33902;SDS011;20194;50.950;5.346;2023-06-14T03:06:30;11.20;;;8.15;;
33902;SDS011;20194;50.950;5.346;2023-06-14T03:08:56;15.10;;;8.63;;
33902;SDS011;20194;50.950;5.346;2023-06-14T03:11:26;16.60;;;8.68;;
33902;SDS011;20194;50.950;5.346;2023-06-14T03:13:53;13.13;;;8.38;;
33902;SDS011;20194;50.950;5.346;2023-06-14T03:16:19;12.02;;;8.15;;
33902;SDS011;20194;50.950;5.346;2023-06-14T03:18:47;24.23;;;8.27;;
33902;SDS011;20194;50.950;5.346;2023-06-14T03:21:16;13.55;;;7.97;;
33902;SDS011;20194;50.950;5.346;2023-06-14T03:23:43;15.60;;;8.57;;
33902;SDS011;20194;50.950;5.346;2023-06-14T03:26:09;13.70;;;7.68;;
33902;SDS011;20194;50.950;5.346;2023-06-14T03:28:40;13.70;;;8.50;;
33902;SDS011;20194;50.950;5.346;2023-06-14T03:31:06;18.15;;;8.35;;
33902;SDS011;20194;50.950;5.346;2023-06-14T03:33:33;16.25;;;7.75;;
33902;SDS011;20194;50.950;5.346;2023-06-14T03:35:59;17.38;;;8.90;;
33902;SDS011;20194;50.950;5.346;2023-06-14T03:38:26;14.93;;;7.22;;
33902;SDS011;20194;50.950;5.346;2023-06-14T03:40:52;17.88;;;7.95;;
33902;SDS011;20194;50.950;5.346;2023-06-14T03:43:17;11.80;;;7.63;;
33902;SDS011;20194;50.950;5.346;2023-06-14T03:45:43;13.77;;;7.50;;
33902;SDS011;20194;50.950;5.346;2023-06-14T03:48:09;12.00;;;7.72;;
33902;SDS011;20194;50.950;5.346;2023-06-14T03:50:34;18.48;;;7.93;;
33902;SDS011;20194;50.950;5.346;2023-06-14T03:53:03;11.70;;;8.35;;
33902;SDS011;20194;50.950;5.346;2023-06-14T03:55:29;10.68;;;8.00;;
33902;SDS011;20194;50.950;5.346;2023-06-14T03:57:56;12.48;;;8.15;;
33902;SDS011;20194;50.950;5.346;2023-06-14T04:00:22;12.60;;;7.82;;
33902;SDS011;20194;50.950;5.346;2023-06-14T04:02:48;15.68;;;7.45;;
33902;SDS011;20194;50.950;5.346;2023-06-14T04:05:14;12.77;;;7.45;;
33902;SDS011;20194;50.950;5.346;2023-06-14T04:07:41;10.23;;;7.18;;
33902;SDS011;20194;50.950;5.346;2023-06-14T04:10:10;11.18;;;7.85;;
33902;SDS011;20194;50.950;5.346;2023-06-14T04:12:37;14.70;;;8.75;;
33902;SDS011;20194;50.950;5.346;2023-06-14T04:15:03;16.83;;;8.32;;
33902;SDS011;20194;50.950;5.346;2023-06-14T04:17:30;10.18;;;7.72;;
33902;SDS011;20194;50.950;5.346;2023-06-14T04:19:58;12.25;;;7.55;;
33902;SDS011;20194;50.950;5.346;2023-06-14T04:22:25;14.38;;;7.82;;
33902;SDS011;20194;50.950;5.346;2023-06-14T04:24:53;13.43;;;7.95;;
33902;SDS011;20194;50.950;5.346;2023-06-14T04:27:22;13.23;;;8.15;;
33902;SDS011;20194;50.950;5.346;2023-06-14T04:29:51;12.48;;;8.10;;
33902;SDS011;20194;50.950;5.346;2023-06-14T04:32:25;9.95;;;7.47;;
33902;SDS011;20194;50.950;5.346;2023-06-14T04:34:54;12.35;;;8.73;;
33902;SDS011;20194;50.950;5.346;2023-06-14T04:37:21;17.35;;;7.57;;
33902;SDS011;20194;50.950;5.346;2023-06-14T04:39:47;17.35;;;8.68;;
33902;SDS011;20194;50.950;5.346;2023-06-14T04:42:13;12.07;;;7.55;;
33902;SDS011;20194;50.950;5.346;2023-06-14T04:44:40;17.73;;;8.30;;
33902;SDS011;20194;50.950;5.346;2023-06-14T04:47:07;13.55;;;7.90;;
33902;SDS011;20194;50.950;5.346;2023-06-14T04:49:32;15.32;;;8.35;;
33902;SDS011;20194;50.950;5.346;2023-06-14T04:51:59;12.88;;;7.35;;
33902;SDS011;20194;50.950;5.346;2023-06-14T04:54:26;19.73;;;8.60;;
33902;SDS011;20194;50.950;5.346;2023-06-14T04:56:53;17.88;;;8.30;;
33902;SDS011;20194;50.950;5.346;2023-06-14T04:59:20;14.73;;;8.38;;
33902;SDS011;20194;50.950;5.346;2023-06-14T05:01:48;16.42;;;8.27;;
33902;SDS011;20194;50.950;5.346;2023-06-14T05:04:14;14.82;;;8.43;;
33902;SDS011;20194;50.950;5.346;2023-06-14T05:06:44;13.20;;;7.82;;
33902;SDS011;20194;50.950;5.346;2023-06-14T05:09:10;11.45;;;7.90;;
33902;SDS011;20194;50.950;5.346;2023-06-14T05:11:37;19.60;;;8.60;;
33902;SDS011;20194;50.950;5.346;2023-06-14T05:14:03;13.93;;;8.40;;
33902;SDS011;20194;50.950;5.346;2023-06-14T05:16:28;20.77;;;9.73;;
33902;SDS011;20194;50.950;5.346;2023-06-14T05:18:54;21.45;;;8.93;;
33902;SDS011;20194;50.950;5.346;2023-06-14T05:21:20;21.15;;;9.23;;
33902;SDS011;20194;50.950;5.346;2023-06-14T05:23:46;15.90;;;8.57;;
33902;SDS011;20194;50.950;5.346;2023-06-14T05:26:11;13.43;;;7.25;;
33902;SDS011;20194;50.950;5.346;2023-06-14T05:28:37;12.35;;;7.45;;
33902;SDS011;20194;50.950;5.346;2023-06-14T05:31:03;13.73;;;7.78;;
33902;SDS011;20194;50.950;5.346;2023-06-14T05:33:28;12.88;;;7.95;;
33902;SDS011;20194;50.950;5.346;2023-06-14T05:35:54;15.82;;;6.93;;
33902;SDS011;20194;50.950;5.346;2023-06-14T05:38:20;19.00;;;8.38;;
33902;SDS011;20194;50.950;5.346;2023-06-14T05:40:46;13.70;;;7.55;;
33902;SDS011;20194;50.950;5.346;2023-06-14T05:43:11;15.02;;;8.32;;
33902;SDS011;20194;50.950;5.346;2023-06-14T05:45:37;15.45;;;7.45;;
33902;SDS011;20194;50.950;5.346;2023-06-14T05:48:03;12.77;;;7.38;;
33902;SDS011;20194;50.950;5.346;2023-06-14T05:50:29;16.75;;;7.80;;
33902;SDS011;20194;50.950;5.346;2023-06-14T05:52:55;16.02;;;7.00;;
33902;SDS011;20194;50.950;5.346;2023-06-14T05:55:21;15.73;;;6.78;;
33902;SDS011;20194;50.950;5.346;2023-06-14T05:57:47;12.20;;;7.70;;
33902;SDS011;20194;50.950;5.346;2023-06-14T06:00:13;15.73;;;7.35;;
33902;SDS011;20194;50.950;5.346;2023-06-14T06:02:43;17.38;;;6.95;;
33902;SDS011;20194;50.950;5.346;2023-06-14T06:05:10;12.05;;;6.85;;
33902;SDS011;20194;50.950;5.346;2023-06-14T06:07:36;9.93;;;7.45;;
33902;SDS011;20194;50.950;5.346;2023-06-14T06:10:03;7.95;;;6.35;;
33902;SDS011;20194;50.950;5.346;2023-06-14T06:12:30;17.02;;;7.65;;
33902;SDS011;20194;50.950;5.346;2023-06-14T06:14:55;11.77;;;6.82;;
33902;SDS011;20194;50.950;5.346;2023-06-14T06:17:21;13.98;;;6.18;;
33902;SDS011;20194;50.950;5.346;2023-06-14T06:19:47;10.18;;;6.25;;
33902;SDS011;20194;50.950;5.346;2023-06-14T06:22:12;9.77;;;6.47;;
33902;SDS011;20194;50.950;5.346;2023-06-14T06:24:38;14.25;;;6.53;;
33902;SDS011;20194;50.950;5.346;2023-06-14T06:27:04;10.27;;;6.25;;
33902;SDS011;20194;50.950;5.346;2023-06-14T06:29:33;11.25;;;6.03;;
33902;SDS011;20194;50.950;5.346;2023-06-14T06:31:59;10.23;;;5.93;;
33902;SDS011;20194;50.950;5.346;2023-06-14T06:34:25;12.35;;;6.65;;
33902;SDS011;20194;50.950;5.346;2023-06-14T06:36:51;10.50;;;6.38;;
33902;SDS011;20194;50.950;5.346;2023-06-14T06:39:17;13.05;;;6.90;;
33902;SDS011;20194;50.950;5.346;2023-06-14T06:41:42;12.15;;;6.25;;
33902;SDS011;20194;50.950;5.346;2023-06-14T06:44:08;11.45;;;6.10;;
33902;SDS011;20194;50.950;5.346;2023-06-14T06:46:38;9.73;;;5.88;;
33902;SDS011;20194;50.950;5.346;2023-06-14T06:49:06;9.82;;;6.15;;
33902;SDS011;20194;50.950;5.346;2023-06-14T06:51:32;11.40;;;6.82;;
33902;SDS011;20194;50.950;5.346;2023-06-14T06:53:58;13.60;;;6.40;;
33902;SDS011;20194;50.950;5.346;2023-06-14T06:56:23;13.63;;;6.28;;
33902;SDS011;20194;50.950;5.346;2023-06-14T06:58:52;12.38;;;6.43;;
33902;SDS011;20194;50.950;5.346;2023-06-14T07:01:17;10.50;;;6.25;;
33902;SDS011;20194;50.950;5.346;2023-06-14T07:03:46;12.02;;;6.50;;
33902;SDS011;20194;50.950;5.346;2023-06-14T07:06:12;10.30;;;6.95;;
33902;SDS011;20194;50.950;5.346;2023-06-14T07:08:38;11.13;;;6.10;;
33902;SDS011;20194;50.950;5.346;2023-06-14T07:11:04;10.82;;;6.90;;
33902;SDS011;20194;50.950;5.346;2023-06-14T07:13:31;10.25;;;5.78;;
33902;SDS011;20194;50.950;5.346;2023-06-14T07:15:57;9.25;;;5.70;;
33902;SDS011;20194;50.950;5.346;2023-06-14T07:18:25;11.63;;;5.80;;
33902;SDS011;20194;50.950;5.346;2023-06-14T07:20:51;9.63;;;6.35;;
33902;SDS011;20194;50.950;5.346;2023-06-14T07:23:18;15.45;;;6.00;;
33902;SDS011;20194;50.950;5.346;2023-06-14T07:25:44;9.30;;;5.75;;
33902;SDS011;20194;50.950;5.346;2023-06-14T07:28:09;13.18;;;5.57;;
33902;SDS011;20194;50.950;5.346;2023-06-14T07:30:35;12.68;;;5.35;;
33902;SDS011;20194;50.950;5.346;2023-06-14T07:33:01;13.85;;;6.22;;
33902;SDS011;20194;50.950;5.346;2023-06-14T07:35:26;14.10;;;6.15;;
33902;SDS011;20194;50.950;5.346;2023-06-14T07:37:52;11.98;;;5.45;;
33902;SDS011;20194;50.950;5.346;2023-06-14T07:40:18;10.15;;;5.05;;
33902;SDS011;20194;50.950;5.346;2023-06-14T07:42:44;10.43;;;6.45;;
33902;SDS011;20194;50.950;5.346;2023-06-14T07:45:12;10.60;;;5.97;;
33902;SDS011;20194;50.950;5.346;2023-06-14T07:47:40;10.32;;;5.70;;
33902;SDS011;20194;50.950;5.346;2023-06-14T07:50:06;8.13;;;5.45;;
33902;SDS011;20194;50.950;5.346;2023-06-14T07:52:32;12.70;;;5.45;;
33902;SDS011;20194;50.950;5.346;2023-06-14T07:54:58;12.18;;;5.60;;
33902;SDS011;20194;50.950;5.346;2023-06-14T07:57:24;7.78;;;5.28;;
33902;SDS011;20194;50.950;5.346;2023-06-14T07:59:49;14.85;;;5.50;;
33902;SDS011;20194;50.950;5.346;2023-06-14T08:02:15;7.50;;;5.93;;
33902;SDS011;20194;50.950;5.346;2023-06-14T08:04:41;9.75;;;5.53;;
33902;SDS011;20194;50.950;5.346;2023-06-14T08:07:07;14.23;;;5.60;;
33902;SDS011;20194;50.950;5.346;2023-06-14T08:09:33;10.23;;;4.90;;
33902;SDS011;20194;50.950;5.346;2023-06-14T08:12:00;7.85;;;5.05;;
33902;SDS011;20194;50.950;5.346;2023-06-14T08:14:25;10.80;;;5.32;;
33902;SDS011;20194;50.950;5.346;2023-06-14T08:16:51;9.60;;;6.00;;
33902;SDS011;20194;50.950;5.346;2023-06-14T08:19:17;15.57;;;5.93;;
33902;SDS011;20194;50.950;5.346;2023-06-14T08:21:43;6.68;;;4.78;;
33902;SDS011;20194;50.950;5.346;2023-06-14T08:24:10;7.22;;;4.97;;
33902;SDS011;20194;50.950;5.346;2023-06-14T08:26:37;9.13;;;5.43;;
33902;SDS011;20194;50.950;5.346;2023-06-14T08:29:04;13.02;;;5.13;;
33902;SDS011;20194;50.950;5.346;2023-06-14T08:31:32;7.28;;;5.55;;
33902;SDS011;20194;50.950;5.346;2023-06-14T08:33:58;7.35;;;4.55;;
33902;SDS011;20194;50.950;5.346;2023-06-14T08:36:24;7.80;;;4.95;;
33902;SDS011;20194;50.950;5.346;2023-06-14T08:38:50;18.27;;;4.80;;
33902;SDS011;20194;50.950;5.346;2023-06-14T08:41:22;9.23;;;5.00;;
33902;SDS011;20194;50.950;5.346;2023-06-14T08:43:49;10.82;;;4.70;;
33902;SDS011;20194;50.950;5.346;2023-06-14T08:46:17;12.57;;;5.35;;
33902;SDS011;20194;50.950;5.346;2023-06-14T08:48:46;13.93;;;4.75;;
33902;SDS011;20194;50.950;5.346;2023-06-14T08:51:13;9.43;;;4.95;;
33902;SDS011;20194;50.950;5.346;2023-06-14T08:53:43;10.25;;;4.30;;
33902;SDS011;20194;50.950;5.346;2023-06-14T08:56:09;11.10;;;4.43;;
33902;SDS011;20194;50.950;5.346;2023-06-14T08:58:42;12.15;;;4.93;;
33902;SDS011;20194;50.950;5.346;2023-06-14T09:01:10;11.05;;;4.60;;
33902;SDS011;20194;50.950;5.346;2023-06-14T09:03:41;8.10;;;4.03;;
33902;SDS011;20194;50.950;5.346;2023-06-14T09:06:08;11.95;;;5.43;;
33902;SDS011;20194;50.950;5.346;2023-06-14T09:08:47;11.05;;;4.75;;
33902;SDS011;20194;50.950;5.346;2023-06-14T09:11:14;7.20;;;4.63;;
33902;SDS011;20194;50.950;5.346;2023-06-14T09:13:43;6.53;;;4.60;;
33902;SDS011;20194;50.950;5.346;2023-06-14T09:16:10;7.32;;;4.75;;
33902;SDS011;20194;50.950;5.346;2023-06-14T09:18:37;9.15;;;3.67;;
33902;SDS011;20194;50.950;5.346;2023-06-14T09:21:08;7.00;;;3.78;;
33902;SDS011;20194;50.950;5.346;2023-06-14T09:23:38;7.05;;;3.75;;
33902;SDS011;20194;50.950;5.346;2023-06-14T09:26:08;11.05;;;4.22;;
33902;SDS011;20194;50.950;5.346;2023-06-14T09:31:07;8.50;;;4.22;;
33902;SDS011;20194;50.950;5.346;2023-06-14T09:33:34;8.60;;;4.05;;
33902;SDS011;20194;50.950;5.346;2023-06-14T09:36:00;10.75;;;4.05;;
33902;SDS011;20194;50.950;5.346;2023-06-14T09:38:26;8.02;;;4.00;;
33902;SDS011;20194;50.950;5.346;2023-06-14T09:40:52;4.40;;;3.78;;
33902;SDS011;20194;50.950;5.346;2023-06-14T09:43:17;7.30;;;3.40;;
33902;SDS011;20194;50.950;5.346;2023-06-14T09:45:46;5.20;;;2.97;;
33902;SDS011;20194;50.950;5.346;2023-06-14T09:48:13;5.43;;;3.53;;
33902;SDS011;20194;50.950;5.346;2023-06-14T09:50:44;7.18;;;3.00;;
33902;SDS011;20194;50.950;5.346;2023-06-14T09:53:12;5.05;;;3.47;;
33902;SDS011;20194;50.950;5.346;2023-06-14T09:55:40;4.25;;;3.25;;
33902;SDS011;20194;50.950;5.346;2023-06-14T09:58:07;6.60;;;3.42;;
33902;SDS011;20194;50.950;5.346;2023-06-14T10:00:34;9.73;;;3.22;;
33902;SDS011;20194;50.950;5.346;2023-06-14T10:03:12;7.90;;;3.03;;
33902;SDS011;20194;50.950;5.346;2023-06-14T10:05:41;8.63;;;3.55;;
33902;SDS011;20194;50.950;5.346;2023-06-14T10:08:10;7.13;;;3.67;;
33902;SDS011;20194;50.950;5.346;2023-06-14T10:10:40;8.50;;;3.42;;
33902;SDS011;20194;50.950;5.346;2023-06-14T10:13:07;9.75;;;4.28;;
33902;SDS011;20194;50.950;5.346;2023-06-14T10:23:45;6.00;;;3.60;;
33902;SDS011;20194;50.950;5.346;2023-06-14T10:26:19;6.45;;;3.50;;
33902;SDS011;20194;50.950;5.346;2023-06-14T10:34:11;3.47;;;3.13;;
33902;SDS011;20194;50.950;5.346;2023-06-14T10:36:50;3.80;;;2.67;;
33902;SDS011;20194;50.950;5.346;2023-06-14T10:39:32;10.60;;;3.03;;
33902;SDS011;20194;50.950;5.346;2023-06-14T10:42:06;9.05;;;3.78;;
33902;SDS011;20194;50.950;5.346;2023-06-14T10:46:59;5.25;;;3.10;;
33902;SDS011;20194;50.950;5.346;2023-06-14T10:49:49;4.72;;;3.20;;
33902;SDS011;20194;50.950;5.346;2023-06-14T10:52:26;9.60;;;3.25;;
33902;SDS011;20194;50.950;5.346;2023-06-14T10:57:36;4.38;;;3.30;;
33902;SDS011;20194;50.950;5.346;2023-06-14T11:00:03;4.72;;;2.88;;
33902;SDS011;20194;50.950;5.346;2023-06-14T11:05:16;5.55;;;2.55;;
33902;SDS011;20194;50.950;5.346;2023-06-14T11:10:45;6.20;;;2.78;;
33902;SDS011;20194;50.950;5.346;2023-06-14T11:13:11;11.50;;;2.45;;
33902;SDS011;20194;50.950;5.346;2023-06-14T11:15:37;7.55;;;2.47;;
33902;SDS011;20194;50.950;5.346;2023-06-14T11:18:07;3.85;;;2.20;;
33902;SDS011;20194;50.950;5.346;2023-06-14T11:20:35;3.55;;;2.10;;
33902;SDS011;20194;50.950;5.346;2023-06-14T11:23:01;4.97;;;2.25;;
33902;SDS011;20194;50.950;5.346;2023-06-14T11:25:27;4.80;;;2.05;;
33902;SDS011;20194;50.950;5.346;2023-06-14T11:27:53;3.35;;;1.60;;
33902;SDS011;20194;50.950;5.346;2023-06-14T11:30:20;7.43;;;1.80;;
33902;SDS011;20194;50.950;5.346;2023-06-14T11:32:46;2.20;;;1.80;;
33902;SDS011;20194;50.950;5.346;2023-06-14T11:35:17;7.97;;;1.77;;
33902;SDS011;20194;50.950;5.346;2023-06-14T11:37:43;2.13;;;1.67;;
33902;SDS011;20194;50.950;5.346;2023-06-14T11:40:09;1.52;;;1.38;;
33902;SDS011;20194;50.950;5.346;2023-06-14T11:42:37;3.47;;;1.70;;
33902;SDS011;20194;50.950;5.346;2023-06-14T11:45:04;2.72;;;1.65;;
33902;SDS011;20194;50.950;5.346;2023-06-14T11:47:33;2.90;;;1.80;;
33902;SDS011;20194;50.950;5.346;2023-06-14T11:50:00;3.00;;;1.80;;
33902;SDS011;20194;50.950;5.346;2023-06-14T11:52:26;3.63;;;1.80;;
33902;SDS011;20194;50.950;5.346;2023-06-14T11:54:52;5.15;;;1.80;;
33902;SDS011;20194;50.950;5.346;2023-06-14T11:57:19;6.72;;;1.80;;
33902;SDS011;20194;50.950;5.346;2023-06-14T11:59:45;3.20;;;1.73;;
33902;SDS011;20194;50.950;5.346;2023-06-14T12:02:18;3.75;;;1.40;;
33902;SDS011;20194;50.950;5.346;2023-06-14T12:04:46;5.38;;;2.20;;
33902;SDS011;20194;50.950;5.346;2023-06-14T12:07:16;3.47;;;1.88;;
33902;SDS011;20194;50.950;5.346;2023-06-14T12:12:26;6.03;;;1.92;;
33902;SDS011;20194;50.950;5.346;2023-06-14T12:14:52;5.57;;;1.90;;
33902;SDS011;20194;50.950;5.346;2023-06-14T12:17:18;3.75;;;1.70;;
33902;SDS011;20194;50.950;5.346;2023-06-14T12:19:45;9.55;;;2.38;;
33902;SDS011;20194;50.950;5.346;2023-06-14T12:22:13;6.28;;;1.92;;
33902;SDS011;20194;50.950;5.346;2023-06-14T12:24:43;8.07;;;1.90;;
33902;SDS011;20194;50.950;5.346;2023-06-14T12:27:09;3.20;;;2.15;;
33902;SDS011;20194;50.950;5.346;2023-06-14T12:29:37;7.57;;;2.20;;
33902;SDS011;20194;50.950;5.346;2023-06-14T12:32:03;6.15;;;2.70;;
33902;SDS011;20194;50.950;5.346;2023-06-14T12:34:29;8.07;;;2.70;;
33902;SDS011;20194;50.950;5.346;2023-06-14T12:36:56;4.80;;;2.05;;
33902;SDS011;20194;50.950;5.346;2023-06-14T12:39:22;4.70;;;2.60;;
33902;SDS011;20194;50.950;5.346;2023-06-14T12:41:48;2.55;;;1.83;;
33902;SDS011;20194;50.950;5.346;2023-06-14T12:44:14;3.42;;;2.28;;
33902;SDS011;20194;50.950;5.346;2023-06-14T12:46:41;5.75;;;2.17;;
33902;SDS011;20194;50.950;5.346;2023-06-14T12:49:08;5.32;;;1.90;;
33902;SDS011;20194;50.950;5.346;2023-06-14T12:51:37;5.63;;;2.22;;
33902;SDS011;20194;50.950;5.346;2023-06-14T12:54:04;5.35;;;2.22;;
33902;SDS011;20194;50.950;5.346;2023-06-14T12:56:30;7.03;;;2.58;;
33902;SDS011;20194;50.950;5.346;2023-06-14T12:58:55;4.05;;;1.92;;
33902;SDS011;20194;50.950;5.346;2023-06-14T13:01:21;9.82;;;2.40;;
33902;SDS011;20194;50.950;5.346;2023-06-14T13:03:47;6.75;;;2.30;;
33902;SDS011;20194;50.950;5.346;2023-06-14T13:06:13;2.38;;;1.92;;
33902;SDS011;20194;50.950;5.346;2023-06-14T13:08:39;3.75;;;2.15;;
33902;SDS011;20194;50.950;5.346;2023-06-14T13:11:05;12.75;;;2.45;;
33902;SDS011;20194;50.950;5.346;2023-06-14T13:13:31;3.60;;;2.28;;
33902;SDS011;20194;50.950;5.346;2023-06-14T13:15:56;4.15;;;2.00;;
33902;SDS011;20194;50.950;5.346;2023-06-14T13:18:22;7.15;;;2.20;;
33902;SDS011;20194;50.950;5.346;2023-06-14T13:20:48;3.20;;;2.03;;
33902;SDS011;20194;50.950;5.346;2023-06-14T13:23:13;4.35;;;1.77;;
33902;SDS011;20194;50.950;5.346;2023-06-14T13:25:40;9.25;;;2.40;;
33902;SDS011;20194;50.950;5.346;2023-06-14T13:28:06;4.15;;;2.20;;
33902;SDS011;20194;50.950;5.346;2023-06-14T13:30:32;4.50;;;1.80;;
33902;SDS011;20194;50.950;5.346;2023-06-14T13:32:58;9.15;;;1.92;;
33902;SDS011;20194;50.950;5.346;2023-06-14T13:35:25;5.80;;;1.75;;
33902;SDS011;20194;50.950;5.346;2023-06-14T13:37:51;1.92;;;1.58;;
33902;SDS011;20194;50.950;5.346;2023-06-14T13:40:17;7.53;;;2.00;;
33902;SDS011;20194;50.950;5.346;2023-06-14T13:42:43;5.68;;;1.80;;
33902;SDS011;20194;50.950;5.346;2023-06-14T13:45:09;2.40;;;1.75;;
33902;SDS011;20194;50.950;5.346;2023-06-14T13:47:36;3.05;;;2.28;;
33902;SDS011;20194;50.950;5.346;2023-06-14T13:50:02;4.15;;;1.73;;
33902;SDS011;20194;50.950;5.346;2023-06-14T13:52:29;4.38;;;1.70;;
33902;SDS011;20194;50.950;5.346;2023-06-14T13:54:55;3.93;;;1.97;;
33902;SDS011;20194;50.950;5.346;2023-06-14T13:57:21;4.57;;;2.30;;
33902;SDS011;20194;50.950;5.346;2023-06-14T13:59:46;4.07;;;1.90;;
33902;SDS011;20194;50.950;5.346;2023-06-14T14:02:13;8.75;;;2.50;;
33902;SDS011;20194;50.950;5.346;2023-06-14T14:04:39;3.95;;;2.10;;
33902;SDS011;20194;50.950;5.346;2023-06-14T14:07:05;2.42;;;1.92;;
33902;SDS011;20194;50.950;5.346;2023-06-14T14:09:32;5.70;;;2.03;;
33902;SDS011;20194;50.950;5.346;2023-06-14T14:12:00;5.43;;;2.00;;
33902;SDS011;20194;50.950;5.346;2023-06-14T14:14:27;2.83;;;1.90;;
33902;SDS011;20194;50.950;5.346;2023-06-14T14:16:53;2.90;;;2.25;;
33902;SDS011;20194;50.950;5.346;2023-06-14T14:19:22;4.00;;;2.47;;
33902;SDS011;20194;50.950;5.346;2023-06-14T14:21:48;5.95;;;2.30;;
33902;SDS011;20194;50.950;5.346;2023-06-14T14:24:14;6.25;;;2.03;;
33902;SDS011;20194;50.950;5.346;2023-06-14T14:26:41;2.45;;;1.85;;
33902;SDS011;20194;50.950;5.346;2023-06-14T14:29:06;4.13;;;1.88;;
33902;SDS011;20194;50.950;5.346;2023-06-14T14:31:34;6.15;;;1.95;;
33902;SDS011;20194;50.950;5.346;2023-06-14T14:34:00;6.38;;;2.20;;
33902;SDS011;20194;50.950;5.346;2023-06-14T14:36:25;2.25;;;1.50;;
33902;SDS011;20194;50.950;5.346;2023-06-14T14:38:51;3.28;;;2.03;;
33902;SDS011;20194;50.950;5.346;2023-06-14T14:41:17;4.10;;;2.15;;
33902;SDS011;20194;50.950;5.346;2023-06-14T14:43:43;3.70;;;1.80;;
33902;SDS011;20194;50.950;5.346;2023-06-14T14:46:08;1.83;;;1.65;;
33902;SDS011;20194;50.950;5.346;2023-06-14T14:48:34;3.63;;;1.80;;
33902;SDS011;20194;50.950;5.346;2023-06-14T14:51:00;5.55;;;1.80;;
33902;SDS011;20194;50.950;5.346;2023-06-14T14:53:26;7.75;;;1.80;;
33902;SDS011;20194;50.950;5.346;2023-06-14T14:55:51;5.65;;;2.08;;
33902;SDS011;20194;50.950;5.346;2023-06-14T14:58:17;14.50;;;2.40;;
33902;SDS011;20194;50.950;5.346;2023-06-14T15:00:44;4.63;;;1.30;;
33902;SDS011;20194;50.950;5.346;2023-06-14T15:03:10;4.15;;;1.40;;
33902;SDS011;20194;50.950;5.346;2023-06-14T15:05:36;4.03;;;1.67;;
33902;SDS011;20194;50.950;5.346;2023-06-14T15:08:02;6.55;;;1.70;;
33902;SDS011;20194;50.950;5.346;2023-06-14T15:10:28;6.07;;;1.40;;
33902;SDS011;20194;50.950;5.346;2023-06-14T15:12:55;4.78;;;1.77;;